Time;durP1;ratioP1;P1;durP2;ratioP2;P2;SDS_P1;SDS_P2;PMS_P1;PMS_P2;Temp;Humidity;BMP_temperature;BMP_pressure;BME280_temperature;BME280_humidity;BME280_pressure;Samples;Min_cycle;Max_cycle;Signal;HPM_P1;HPM_P2
2022/02/15 00:01:27;;;;;;;14.58;10.88;;;22.00;93.30;;;;;;1710291;84;21657;-81
2022/02/15 00:03:58;;;;;;;15.28;11.57;;;22.00;93.30;;;;;;1712632;84;21250;-82
2022/02/15 00:06:28;;;;;;;17.05;11.20;;;22.00;93.30;;;;;;1726342;81;21248;-82
2022/02/15 00:08:59;;;;;;;16.02;11.53;;;22.00;93.20;;;;;;1762469;80;21285;-83
2022/02/15 00:11:30;;;;;;;17.98;12.07;;;22.00;93.20;;;;;;1760985;80;21188;-81
2022/02/15 00:14:01;;;;;;;19.98;13.00;;;22.00;93.30;;;;;;1720020;83;21695;-81
2022/02/15 00:16:31;;;;;;;15.32;10.55;;;22.00;93.30;;;;;;1760651;81;21207;-81
2022/02/15 00:19:03;;;;;;;13.00;9.33;;;22.00;93.00;;;;;;1723744;83;21704;-83
2022/02/15 00:21:34;;;;;;;17.57;11.50;;;22.00;92.90;;;;;;1762169;81;21160;-80
2022/02/15 00:24:05;;;;;;;19.77;12.82;;;22.00;93.00;;;;;;1727046;83;21174;-81
2022/02/15 00:26:36;;;;;;;16.67;9.90;;;22.00;93.00;;;;;;1756885;80;21152;-81
2022/02/15 00:29:06;;;;;;;13.55;9.00;;;22.00;92.70;;;;;;1761945;80;21152;-81
2022/02/15 00:31:37;;;;;;;25.23;16.40;;;22.00;93.10;;;;;;1762815;80;21659;-80
2022/02/15 00:34:08;;;;;;;23.45;14.35;;;22.00;93.10;;;;;;1721516;83;21130;-81
2022/02/15 00:36:39;;;;;;;26.02;14.55;;;22.00;93.10;;;;;;1762588;81;21262;-80
2022/02/15 00:39:10;;;;;;;16.52;10.10;;;22.10;93.20;;;;;;1729226;83;21236;-82
2022/02/15 00:41:41;;;;;;;18.40;10.78;;;22.00;93.00;;;;;;1761345;81;21222;-81
2022/02/15 00:44:12;;;;;;;17.37;10.03;;;22.10;93.00;;;;;;1728979;83;21280;-80
2022/02/15 00:46:42;;;;;;;14.40;9.65;;;22.10;93.00;;;;;;1776422;80;21160;-81
2022/02/15 00:49:13;;;;;;;15.72;10.30;;;22.10;92.90;;;;;;1791628;80;21553;-80
2022/02/15 00:51:44;;;;;;;17.20;12.25;;;22.10;92.80;;;;;;1763139;80;21096;-80
2022/02/15 00:54:15;;;;;;;16.25;9.28;;;22.10;92.90;;;;;;1754229;81;21270;-81
2022/02/15 00:56:46;;;;;;;16.75;10.43;;;22.10;92.90;;;;;;1724680;83;21687;-82
2022/02/15 00:59:17;;;;;;;15.80;9.93;;;22.10;92.70;;;;;;1764596;80;21168;-81
2022/02/15 01:01:47;;;;;;;13.72;9.08;;;22.10;92.70;;;;;;1766337;80;21286;-83
2022/02/15 01:04:18;;;;;;;13.53;8.73;;;22.10;92.70;;;;;;1760890;80;21160;-82
2022/02/15 01:06:48;;;;;;;11.70;8.20;;;22.20;92.60;;;;;;1756323;80;21238;-81
2022/02/15 01:09:19;;;;;;;17.73;10.72;;;22.20;92.50;;;;;;1764463;80;21137;-81
2022/02/15 01:11:50;;;;;;;14.28;10.05;;;22.20;92.50;;;;;;1766220;80;21790;-81
2022/02/15 01:14:21;;;;;;;14.13;9.98;;;22.30;92.30;;;;;;1758314;80;21624;-81
2022/02/15 01:16:51;;;;;;;11.22;8.43;;;22.30;92.30;;;;;;1753946;81;21168;-81
2022/02/15 01:19:22;;;;;;;11.75;8.73;;;22.30;92.10;;;;;;1761807;81;21183;-84
2022/02/15 01:21:53;;;;;;;13.40;9.53;;;22.30;92.00;;;;;;1760059;80;21112;-81
2022/02/15 01:24:24;;;;;;;17.57;11.55;;;22.30;92.10;;;;;;1751217;80;21169;-81
2022/02/15 01:26:55;;;;;;;16.17;10.50;;;22.30;92.10;;;;;;1753940;81;21114;-81
2022/02/15 01:29:26;;;;;;;15.65;10.32;;;22.30;92.00;;;;;;1718044;82;21265;-81
2022/02/15 01:31:57;;;;;;;14.20;10.23;;;22.40;91.90;;;;;;1760256;80;21215;-82
2022/02/15 01:34:27;;;;;;;13.80;10.50;;;22.40;91.70;;;;;;1719967;83;21202;-82
2022/02/15 01:36:58;;;;;;;11.20;7.00;;;22.40;91.80;;;;;;1761974;81;21164;-69
2022/02/15 01:39:29;;;;;;;39.05;9.23;;;22.50;91.60;;;;;;1761241;80;21700;-69
2022/02/15 01:42:01;;;;;;;12.47;8.18;;;22.50;91.30;;;;;;1717357;83;21198;-71
2022/02/15 01:44:32;;;;;;;10.68;7.15;;;22.50;90.90;;;;;;1759980;80;21849;-70
2022/02/15 01:47:04;;;;;;;9.78;6.90;;;22.60;90.90;;;;;;1764103;80;21669;-68
2022/02/15 01:49:35;;;;;;;12.25;7.00;;;22.60;90.90;;;;;;1766319;80;21214;-68
2022/02/15 01:52:06;;;;;;;13.08;7.35;;;22.70;90.70;;;;;;1759738;80;21587;-70
2022/02/15 01:54:37;;;;;;;9.80;7.03;;;22.70;90.90;;;;;;1763884;80;21117;-68
2022/02/15 01:57:08;;;;;;;12.95;8.05;;;22.70;90.80;;;;;;1748643;81;21701;-68
2022/02/15 01:59:38;;;;;;;12.50;7.42;;;22.80;90.40;;;;;;1757116;80;22001;-70
2022/02/15 02:02:09;;;;;;;9.88;6.85;;;22.80;90.30;;;;;;1760890;80;21256;-70
2022/02/15 02:07:12;;;;;;;10.00;7.20;;;22.90;90.50;;;;;;1755485;79;21779;-71
2022/02/15 02:09:43;;;;;;;12.53;7.33;;;23.00;90.50;;;;;;1752130;81;21756;-70
2022/02/15 02:12:14;;;;;;;14.40;7.60;;;23.00;90.40;;;;;;1748983;81;21624;-70
2022/02/15 02:14:45;;;;;;;10.45;6.92;;;23.10;90.40;;;;;;1746454;82;21563;-70
2022/02/15 02:17:16;;;;;;;8.95;6.97;;;23.20;90.30;;;;;;1743662;81;21209;-70
2022/02/15 02:19:46;;;;;;;12.23;7.10;;;23.30;90.20;;;;;;1745911;81;21276;-71
2022/02/15 02:22:17;;;;;;;9.98;7.10;;;23.30;90.10;;;;;;1748660;81;21688;-68
2022/02/15 02:24:48;;;;;;;12.45;7.10;;;23.40;90.00;;;;;;1745955;81;21647;-69
2022/02/15 02:27:21;;;;;;;12.18;6.50;;;23.40;90.00;;;;;;1746535;81;21100;-70
2022/02/15 02:29:53;;;;;;;8.25;5.53;;;23.50;89.40;;;;;;1741293;81;21248;-68
2022/02/15 02:32:26;;;;;;;9.73;6.50;;;23.60;89.40;;;;;;1746270;82;21665;-70
2022/02/15 02:35:01;;;;;;;7.58;6.20;;;23.70;90.10;;;;;;1749646;81;21193;-68
2022/02/15 02:37:33;;;;;;;10.53;5.90;;;23.80;88.60;;;;;;1745109;81;21178;-68
2022/02/15 02:40:06;;;;;;;9.03;6.05;;;23.90;88.40;;;;;;1753970;81;21076;-68
2022/02/15 02:42:39;;;;;;;9.78;6.17;;;23.90;87.20;;;;;;1745906;81;21260;-68
2022/02/15 02:45:12;;;;;;;8.88;6.40;;;24.10;87.70;;;;;;1748845;81;21263;-69
2022/02/15 02:47:46;;;;;;;8.60;6.03;;;24.10;87.30;;;;;;1745955;82;21677;-68
2022/02/15 02:50:19;;;;;;;11.43;5.67;;;24.20;86.40;;;;;;1742205;81;21591;-69
2022/02/15 02:52:49;;;;;;;9.23;5.25;;;24.20;86.30;;;;;;1738530;82;21186;-70
2022/02/15 02:55:20;;;;;;;8.43;6.00;;;24.20;86.60;;;;;;1746857;81;21186;-70
2022/02/15 02:57:53;;;;;;;10.65;5.83;;;24.30;86.00;;;;;;1714026;82;21198;-70
2022/02/15 03:00:24;;;;;;;6.90;5.78;;;24.30;84.20;;;;;;1748347;81;21522;-70
2022/02/15 03:02:54;;;;;;;8.55;5.97;;;24.30;84.30;;;;;;1750895;81;21127;-71
2022/02/15 03:05:25;;;;;;;10.72;5.58;;;24.30;84.60;;;;;;1751875;81;21173;-72
2022/02/15 03:07:56;;;;;;;7.87;6.40;;;24.30;84.90;;;;;;1768208;80;21802;-71
2022/02/15 03:10:27;;;;;;;8.08;5.92;;;24.30;85.00;;;;;;1768541;80;21209;-71
2022/02/15 03:12:59;;;;;;;8.65;5.80;;;24.30;85.10;;;;;;1758237;80;21164;-70
2022/02/15 03:15:30;;;;;;;7.67;5.92;;;24.30;85.20;;;;;;1767111;80;21639;-69
2022/02/15 03:18:00;;;;;;;10.48;6.42;;;24.30;85.60;;;;;;1720542;82;21339;-68
2022/02/15 03:20:31;;;;;;;8.85;6.08;;;24.40;84.90;;;;;;1764010;80;21671;-69
2022/02/15 03:23:02;;;;;;;10.38;5.67;;;24.40;84.50;;;;;;1757891;80;21210;-68
2022/02/15 03:25:33;;;;;;;9.08;6.22;;;24.40;83.60;;;;;;1751465;80;21651;-69
2022/02/15 03:28:04;;;;;;;8.00;5.85;;;24.50;84.80;;;;;;1767128;80;21192;-70
2022/02/15 03:30:35;;;;;;;7.12;5.65;;;24.60;82.30;;;;;;1758025;80;21695;-70
2022/02/15 03:33:05;;;;;;;7.90;5.37;;;24.60;82.40;;;;;;1758219;80;21113;-70
2022/02/15 03:35:36;;;;;;;6.80;5.12;;;24.70;83.10;;;;;;1762819;80;21245;-70
2022/02/15 03:38:07;;;;;;;7.90;5.70;;;24.70;81.20;;;;;;1762586;80;21254;-71
2022/02/15 03:43:10;;;;;;;7.12;5.47;;;24.80;81.90;;;;;;1763479;80;21682;-70
2022/02/15 03:45:41;;;;;;;8.30;5.62;;;24.80;82.30;;;;;;1752620;80;21190;-69
2022/02/15 03:48:12;;;;;;;7.80;6.50;;;24.80;82.30;;;;;;1762494;80;22136;-69
2022/02/15 03:50:43;;;;;;;8.38;5.85;;;24.80;82.60;;;;;;1758912;80;21656;-69
2022/02/15 03:53:15;;;;;;;7.22;5.70;;;24.80;83.00;;;;;;1760338;80;21144;-71
2022/02/15 03:55:46;;;;;;;8.43;5.78;;;24.80;83.20;;;;;;1761744;80;21191;-71
2022/02/15 03:58:17;;;;;;;7.53;5.53;;;24.80;83.10;;;;;;1765294;80;21191;-70
2022/02/15 04:00:48;;;;;;;8.50;5.40;;;24.80;83.10;;;;;;1761622;80;21187;-71
2022/02/15 04:03:19;;;;;;;8.93;5.53;;;24.80;83.30;;;;;;1760034;81;21152;-70
2022/02/15 04:05:50;;;;;;;6.75;5.65;;;24.80;83.30;;;;;;1759781;81;21184;-69
2022/02/15 04:08:22;;;;;;;7.20;5.47;;;24.80;83.30;;;;;;1760553;80;21303;-71
2022/02/15 04:10:53;;;;;;;8.38;6.60;;;24.80;83.30;;;;;;1759629;81;21270;-71
2022/02/15 04:13:25;;;;;;;9.23;6.15;;;24.80;83.40;;;;;;1760202;80;21261;-70
2022/02/15 04:15:55;;;;;;;8.90;5.92;;;24.80;82.80;;;;;;1761920;80;21153;-71
2022/02/15 04:18:26;;;;;;;7.58;5.70;;;24.80;83.60;;;;;;1762720;80;21201;-69
2022/02/15 04:20:57;;;;;;;10.18;5.60;;;24.80;82.40;;;;;;1762237;80;21109;-70
2022/02/15 04:23:29;;;;;;;8.08;5.83;;;24.80;82.90;;;;;;1762725;80;21234;-70
2022/02/15 04:26:00;;;;;;;7.05;5.75;;;24.80;83.00;;;;;;1760818;81;21195;-71
2022/02/15 04:28:31;;;;;;;7.72;6.35;;;24.80;82.70;;;;;;1759656;81;21747;-70
2022/02/15 04:31:01;;;;;;;10.30;6.37;;;24.80;82.40;;;;;;1762352;80;21636;-71
2022/02/15 04:33:32;;;;;;;9.08;6.03;;;24.90;82.20;;;;;;1757157;80;21207;-70
2022/02/15 04:36:03;;;;;;;6.92;5.67;;;24.90;81.60;;;;;;1764036;80;21238;-71
2022/02/15 04:38:37;;;;;;;8.80;6.30;;;24.90;81.70;;;;;;1761488;80;21252;-72
2022/02/15 04:41:07;;;;;;;8.00;6.12;;;25.00;82.00;;;;;;1764057;80;21161;-70
2022/02/15 04:43:38;;;;;;;9.00;6.00;;;25.00;82.30;;;;;;1758438;81;21605;-70
2022/02/15 04:46:09;;;;;;;9.98;6.58;;;25.20;82.20;;;;;;1762315;81;21746;-71
2022/02/15 04:48:40;;;;;;;8.68;6.45;;;25.30;81.50;;;;;;1767404;80;21207;-70
2022/02/15 04:51:11;;;;;;;10.43;7.55;;;25.40;80.90;;;;;;1762815;80;21295;-70
2022/02/15 04:53:42;;;;;;;9.48;7.17;;;25.50;80.70;;;;;;1767807;80;21270;-71
2022/02/15 04:56:13;;;;;;;9.08;6.85;;;25.60;81.20;;;;;;1758818;81;21268;-72
2022/02/15 04:58:43;;;;;;;11.50;7.40;;;25.80;80.70;;;;;;1759955;81;21101;-70
2022/02/15 05:01:16;;;;;;;9.05;6.97;;;26.00;80.10;;;;;;1756112;81;21209;-71
2022/02/15 05:03:46;;;;;;;9.93;7.05;;;26.00;79.70;;;;;;1759696;80;21112;-71
2022/02/15 05:06:17;;;;;;;9.88;7.20;;;26.20;79.40;;;;;;1747271;81;21733;-70
2022/02/15 05:08:50;;;;;;;20.55;7.65;;;26.20;78.90;;;;;;1756824;81;21294;-70
2022/02/15 05:11:22;;;;;;;12.73;8.00;;;26.20;80.20;;;;;;1719036;82;21238;-70
2022/02/15 05:13:52;;;;;;;9.68;7.50;;;26.20;78.20;;;;;;1755530;80;21782;-71
2022/02/15 05:16:23;;;;;;;10.78;7.33;;;26.10;80.00;;;;;;1756278;81;21263;-70
2022/02/15 05:18:54;;;;;;;10.03;7.53;;;26.10;79.70;;;;;;1754398;81;21264;-71
2022/02/15 05:21:25;;;;;;;9.05;7.17;;;26.20;79.70;;;;;;1749164;81;21151;-71
2022/02/15 05:23:56;;;;;;;13.45;7.60;;;26.30;79.10;;;;;;1753109;81;21228;-70
2022/02/15 05:26:27;;;;;;;13.08;8.35;;;26.30;78.20;;;;;;1758412;80;21738;-71
2022/02/15 05:28:58;;;;;;;11.90;7.70;;;26.30;78.30;;;;;;1728625;81;21229;-72
2022/02/15 05:31:28;;;;;;;9.05;7.25;;;26.40;77.80;;;;;;1758610;80;21196;-71
2022/02/15 05:34:00;;;;;;;9.38;8.18;;;26.50;77.90;;;;;;1760280;80;21184;-70
2022/02/15 05:36:33;;;;;;;10.45;7.83;;;26.70;77.50;;;;;;1761301;80;21155;-68
2022/02/15 05:39:03;;;;;;;12.18;7.08;;;26.80;77.90;;;;;;1762996;81;21215;-70
2022/02/15 05:41:33;;;;;;;12.65;7.42;;;26.80;77.50;;;;;;1758443;80;21607;-70
2022/02/15 05:44:04;;;;;;;10.60;7.75;;;26.80;77.50;;;;;;1761967;81;21686;-70
2022/02/15 05:46:35;;;;;;;10.80;7.90;;;26.90;77.20;;;;;;1761064;80;21204;-69
2022/02/15 05:49:07;;;;;;;10.15;7.72;;;26.90;76.90;;;;;;1762073;80;21259;-68
2022/02/15 05:51:38;;;;;;;10.40;7.92;;;26.90;77.00;;;;;;1763087;80;21653;-69
2022/02/15 05:54:08;;;;;;;9.20;6.83;;;26.90;76.50;;;;;;1765696;80;21219;-71
2022/02/15 05:56:39;;;;;;;12.23;7.97;;;27.00;76.70;;;;;;1771816;80;21286;-69
2022/02/15 05:59:10;;;;;;;9.38;7.35;;;27.00;78.40;;;;;;1775469;80;21919;-69
2022/02/15 06:01:43;;;;;;;10.70;8.48;;;27.10;77.80;;;;;;1765347;80;21195;-69
2022/02/15 06:04:15;;;;;;;9.83;7.60;;;27.20;76.60;;;;;;1763090;80;21263;-69
2022/02/15 06:06:46;;;;;;;10.13;8.00;;;27.30;75.90;;;;;;1760980;81;21278;-69
2022/02/15 06:09:17;;;;;;;13.78;8.50;;;27.40;75.90;;;;;;1760810;81;21197;-70
2022/02/15 06:11:48;;;;;;;12.00;9.30;;;27.40;75.30;;;;;;1720616;81;21742;-70
2022/02/15 06:14:30;;;;;;;10.25;7.97;;;27.30;74.90;;;;;;1764440;80;21650;-69
2022/02/15 06:17:01;;;;;;;14.55;8.20;;;27.20;75.80;;;;;;1747615;81;21344;-69
2022/02/15 06:19:51;;;;;;;11.57;7.42;;;27.10;76.20;;;;;;1758582;81;21169;-69
2022/02/15 06:22:22;;;;;;;12.18;8.13;;;27.10;76.80;;;;;;1726905;82;21129;-70
2022/02/15 06:24:52;;;;;;;12.53;8.50;;;27.00;76.60;;;;;;1720316;82;21758;-71
2022/02/15 06:27:23;;;;;;;13.80;8.60;;;27.00;76.50;;;;;;1728157;82;21141;-70
2022/02/15 06:29:54;;;;;;;11.63;8.10;;;27.00;76.20;;;;;;1724084;82;21189;-70
2022/02/15 06:32:27;;;;;;;11.10;7.80;;;27.00;76.40;;;;;;1724125;82;21089;-70
2022/02/15 06:34:59;;;;;;;8.98;8.05;;;27.00;76.70;;;;;;1717222;82;22262;-69
2022/02/15 06:37:30;;;;;;;13.13;9.00;;;27.00;76.50;;;;;;1725036;82;21212;-69
2022/02/15 06:40:02;;;;;;;9.00;7.90;;;27.00;76.60;;;;;;1725447;82;21918;-70
2022/02/15 06:42:33;;;;;;;10.30;7.78;;;27.00;77.10;;;;;;1738331;82;21715;-72
2022/02/15 06:45:04;;;;;;;11.35;8.30;;;26.90;77.40;;;;;;1725667;82;21154;-71
2022/02/15 06:47:35;;;;;;;10.25;9.10;;;26.90;77.10;;;;;;1721126;82;22139;-71
2022/02/15 06:50:07;;;;;;;10.58;8.18;;;26.80;77.40;;;;;;1723350;82;21256;-69
2022/02/15 06:52:41;;;;;;;11.53;7.58;;;26.80;77.30;;;;;;1718951;82;21182;-71
2022/02/15 06:55:13;;;;;;;11.25;8.73;;;26.80;77.90;;;;;;1722382;82;21172;-70
2022/02/15 06:57:44;;;;;;;11.12;8.35;;;26.70;78.40;;;;;;1718712;82;21185;-71
2022/02/15 07:00:19;;;;;;;11.15;8.80;;;26.70;79.00;;;;;;1726011;82;21165;-70
2022/02/15 07:02:50;;;;;;;10.45;8.03;;;26.70;79.00;;;;;;1726681;82;21199;-70
2022/02/15 07:05:21;;;;;;;13.05;7.92;;;26.60;79.00;;;;;;1727040;82;21273;-69
2022/02/15 07:07:53;;;;;;;10.43;7.67;;;26.60;79.10;;;;;;1722706;82;22418;-70
2022/02/15 07:10:28;;;;;;;10.10;7.35;;;26.60;79.40;;;;;;1696535;83;21198;-71
2022/02/15 07:12:59;;;;;;;10.20;8.45;;;26.50;79.70;;;;;;1673830;84;21272;-70
2022/02/15 07:15:30;;;;;;;11.50;8.65;;;26.50;80.30;;;;;;1704882;83;21649;-72
2022/02/15 07:18:02;;;;;;;9.40;7.97;;;26.40;80.30;;;;;;1699573;83;21207;-69
2022/02/15 07:20:36;;;;;;;12.50;8.20;;;26.40;80.60;;;;;;1722374;82;21120;-70
2022/02/15 07:23:10;;;;;;;11.15;8.70;;;26.40;80.70;;;;;;1699256;82;21815;-70
2022/02/15 07:25:39;;;;;;;11.38;8.88;;;26.40;81.30;;;;;;1734393;82;21486;-69
2022/02/15 07:28:10;;;;;;;11.10;8.18;;;26.30;81.10;;;;;;1719739;82;21661;-70
2022/02/15 07:30:42;;;;;;;12.65;9.15;;;26.30;81.20;;;;;;1710346;82;21237;-70
2022/02/15 07:33:12;;;;;;;14.00;9.98;;;26.20;81.40;;;;;;1686139;82;21660;-68
2022/02/15 07:35:43;;;;;;;14.43;10.25;;;26.20;81.30;;;;;;1709096;82;21663;-68
2022/02/15 07:38:33;;;;;;;13.50;10.32;;;26.20;81.70;;;;;;1709160;83;21348;-69
2022/02/15 07:41:10;;;;;;;12.25;9.73;;;26.10;81.50;;;;;;1728818;83;21822;-68
2022/02/15 07:43:43;;;;;;;14.45;11.80;;;26.10;81.60;;;;;;1713672;82;21286;-68
2022/02/15 07:46:14;;;;;;;14.15;10.55;;;26.00;81.60;;;;;;1717427;83;21186;-69
2022/02/15 07:48:49;;;;;;;13.00;9.75;;;26.00;81.80;;;;;;1725964;82;21214;-69
2022/02/15 07:51:20;;;;;;;14.28;9.93;;;26.00;81.80;;;;;;1735091;82;21661;-68
2022/02/15 07:53:51;;;;;;;15.15;10.40;;;26.00;81.90;;;;;;1684895;85;21217;-69
2022/02/15 07:56:22;;;;;;;13.50;9.80;;;25.90;82.00;;;;;;1713444;82;21246;-69
2022/02/15 07:58:52;;;;;;;12.50;9.90;;;25.90;82.10;;;;;;1764114;81;21830;-70
2022/02/15 08:01:23;;;;;;;12.10;9.50;;;25.90;82.30;;;;;;1758325;80;21130;-69
2022/02/15 08:03:56;;;;;;;12.35;9.73;;;25.90;82.60;;;;;;1760498;81;21161;-69
2022/02/15 08:06:26;;;;;;;11.83;9.38;;;25.90;82.50;;;;;;1740790;81;21185;-68
2022/02/15 08:08:57;;;;;;;13.35;9.43;;;25.90;82.80;;;;;;1756887;81;21214;-69
2022/02/15 08:11:27;;;;;;;13.15;9.33;;;25.90;82.80;;;;;;1758444;81;21154;-68
2022/02/15 08:13:59;;;;;;;13.78;11.30;;;25.90;83.00;;;;;;1753040;81;21145;-68
2022/02/15 08:16:30;;;;;;;14.43;10.55;;;25.90;83.20;;;;;;1743182;81;21149;-70
2022/02/15 08:19:01;;;;;;;12.30;10.50;;;25.80;83.10;;;;;;1750267;81;21122;-69
2022/02/15 08:21:32;;;;;;;13.83;9.85;;;25.80;83.20;;;;;;1743878;81;21146;-68
2022/02/15 08:24:04;;;;;;;14.78;11.22;;;25.80;83.30;;;;;;1756710;80;21220;-69
2022/02/15 08:26:35;;;;;;;13.38;9.90;;;25.80;83.20;;;;;;1739776;81;21148;-69
2022/02/15 08:29:06;;;;;;;15.88;10.43;;;25.80;83.10;;;;;;1744213;81;21181;-69
2022/02/15 08:31:36;;;;;;;16.10;10.72;;;25.80;83.20;;;;;;1754139;81;21609;-69
2022/02/15 08:34:07;;;;;;;11.53;9.75;;;25.90;83.20;;;;;;1745836;81;21111;-71
2022/02/15 08:36:39;;;;;;;13.15;9.83;;;25.90;83.00;;;;;;1701629;83;21262;-71
2022/02/15 08:39:10;;;;;;;14.45;10.15;;;25.90;83.10;;;;;;1701792;83;21191;-71
2022/02/15 08:41:41;;;;;;;18.90;12.05;;;25.90;82.80;;;;;;1669738;85;21886;-71
2022/02/15 08:44:12;;;;;;;16.32;11.03;;;25.90;82.50;;;;;;1743926;81;21632;-72
2022/02/15 08:46:43;;;;;;;13.98;10.93;;;26.00;82.50;;;;;;1707282;83;21181;-71
2022/02/15 08:49:14;;;;;;;15.60;10.72;;;25.90;82.30;;;;;;1731538;81;21198;-71
2022/02/15 08:51:46;;;;;;;11.90;9.88;;;26.00;83.40;;;;;;1729789;81;21198;-70
2022/02/15 08:54:17;;;;;;;17.67;10.60;;;26.00;82.50;;;;;;1743371;81;21226;-70
2022/02/15 08:56:47;;;;;;;16.32;11.40;;;25.90;82.30;;;;;;1733350;81;21202;-70
2022/02/15 08:59:18;;;;;;;14.20;10.10;;;25.90;82.50;;;;;;1748081;81;21618;-69
2022/02/15 09:01:49;;;;;;;14.43;10.53;;;25.90;82.60;;;;;;1730334;81;21123;-69
2022/02/15 09:04:20;;;;;;;20.82;12.03;;;25.90;82.70;;;;;;1722467;81;21224;-68
2022/02/15 09:06:53;;;;;;;17.50;11.60;;;25.80;82.70;;;;;;1730021;81;21100;-70
2022/02/15 09:09:23;;;;;;;15.20;11.25;;;25.80;82.80;;;;;;1744789;81;21159;-70
2022/02/15 09:11:53;;;;;;;15.70;11.68;;;25.80;83.00;;;;;;1738388;81;21159;-70
2022/02/15 09:14:24;;;;;;;18.95;11.55;;;25.80;83.30;;;;;;1733632;81;21193;-70
2022/02/15 09:16:55;;;;;;;18.95;13.20;;;25.80;83.40;;;;;;1710063;83;21202;-69
2022/02/15 09:19:38;;;;;;;18.80;12.13;;;25.70;83.30;;;;;;1676892;84;21147;-86
2022/02/15 09:22:09;;;;;;;16.80;11.78;;;25.70;83.40;;;;;;1662013;85;21232;-86
2022/02/15 09:24:40;;;;;;;18.07;12.43;;;25.70;83.60;;;;;;1729844;81;21570;-86
2022/02/15 09:27:11;;;;;;;16.07;12.53;;;25.60;83.90;;;;;;1733676;81;21222;-87
2022/02/15 09:29:41;;;;;;;17.55;12.45;;;25.70;84.10;;;;;;1697982;83;21106;-87
2022/02/15 09:32:12;;;;;;;17.75;12.37;;;25.60;84.20;;;;;;1732664;81;21737;-87
2022/02/15 09:34:44;;;;;;;18.45;12.43;;;25.60;84.10;;;;;;1728921;81;21217;-87
2022/02/15 09:37:15;;;;;;;17.50;12.93;;;25.60;84.30;;;;;;1702684;83;21167;-87
2022/02/15 09:39:48;;;;;;;18.32;12.53;;;25.50;84.40;;;;;;1732140;81;21166;-88
2022/02/15 09:42:19;;;;;;;20.15;13.05;;;25.50;84.60;;;;;;1773820;81;21185;-88
2022/02/15 09:44:51;;;;;;;21.07;12.65;;;25.50;84.70;;;;;;1738170;82;21250;-87
2022/02/15 09:47:24;;;;;;;17.17;12.88;;;25.50;85.90;;;;;;1772273;81;21208;-87
2022/02/15 09:49:55;;;;;;;18.57;12.03;;;25.50;84.90;;;;;;1740596;82;21217;-87
2022/02/15 09:52:27;;;;;;;15.78;12.15;;;25.50;84.90;;;;;;1767544;81;21248;-86
2022/02/15 09:55:00;;;;;;;17.65;11.40;;;25.50;85.60;;;;;;1736322;82;21880;-86
2022/02/15 09:57:33;;;;;;;18.60;11.43;;;25.50;86.00;;;;;;1767374;79;21351;-87
2022/02/15 10:00:07;;;;;;;15.95;12.40;;;25.50;86.10;;;;;;1732706;82;22573;-88
2022/02/15 10:02:39;;;;;;;18.90;12.53;;;25.40;86.20;;;;;;1765131;81;21157;-88
2022/02/15 10:05:15;;;;;;;19.77;12.98;;;25.40;86.50;;;;;;1762651;81;21266;-88
2022/02/15 10:07:56;;;;;;;18.40;13.08;;;25.40;87.20;;;;;;1769591;79;21236;-90
2022/02/15 10:10:26;;;;;;;24.35;13.70;;;25.40;87.70;;;;;;1741211;82;21622;-88
2022/02/15 10:13:01;;;;;;;17.23;13.38;;;25.40;88.10;;;;;;1739253;82;21214;-87
2022/02/15 10:15:38;;;;;;;19.55;14.60;;;25.30;88.30;;;;;;1769921;81;21172;-86
2022/02/15 10:18:12;;;;;;;16.60;13.32;;;25.30;88.60;;;;;;1760983;79;21142;-87
2022/02/15 10:20:45;;;;;;;16.87;13.60;;;25.30;88.70;;;;;;1742656;82;21119;-86
2022/02/15 10:23:18;;;;;;;15.88;13.25;;;25.20;89.40;;;;;;1776531;79;21193;-86
2022/02/15 10:25:51;;;;;;;28.95;13.72;;;25.20;90.00;;;;;;1772746;81;21181;-87
2022/02/15 10:28:24;;;;;;;17.15;13.18;;;25.10;90.30;;;;;;1743282;82;21264;-86
2022/02/15 10:30:57;;;;;;;21.73;13.80;;;25.10;90.30;;;;;;1775032;81;21193;-86
2022/02/15 10:33:30;;;;;;;18.82;14.28;;;25.10;90.60;;;;;;1737277;82;21215;-86
2022/02/15 10:36:03;;;;;;;19.12;14.65;;;25.00;91.20;;;;;;1741983;81;21167;-86
2022/02/15 10:38:38;;;;;;;17.10;14.58;;;25.00;91.90;;;;;;1731947;81;21681;-85
2022/02/15 10:41:21;;;;;;;16.40;14.13;;;25.00;92.20;;;;;;1760083;81;21163;-86
2022/02/15 10:43:46;;;;;;;23.05;16.05;;;24.90;92.50;;;;;;1704932;82;21150;-86
2022/02/15 10:46:19;;;;;;;17.80;14.25;;;24.80;92.40;;;;;;1762388;81;21221;-86
2022/02/15 10:48:51;;;;;;;16.60;13.83;;;24.80;92.50;;;;;;1757507;81;21310;-85
2022/02/15 10:51:24;;;;;;;21.00;14.50;;;24.80;92.00;;;;;;1762202;81;21547;-83
2022/02/15 10:53:57;;;;;;;17.75;14.28;;;24.80;91.90;;;;;;1760246;81;21775;-84
2022/02/15 10:56:32;;;;;;;18.92;14.43;;;24.80;91.70;;;;;;1763631;81;21246;-83
2022/02/15 10:59:05;;;;;;;21.02;14.75;;;24.90;91.70;;;;;;1765617;81;21548;-83
2022/02/15 11:01:37;;;;;;;17.92;15.65;;;24.90;91.50;;;;;;1763601;81;21665;-83
2022/02/15 11:04:08;;;;;;;18.17;14.85;;;24.90;91.60;;;;;;1765330;81;21277;-83
2022/02/15 11:06:39;;;;;;;22.77;15.72;;;25.00;91.40;;;;;;1727205;83;21151;-84
2022/02/15 11:09:12;;;;;;;21.62;15.85;;;25.00;91.40;;;;;;1725524;81;21206;-83
2022/02/15 11:11:45;;;;;;;19.62;15.40;;;25.00;91.30;;;;;;1743011;80;21952;-82
2022/02/15 11:14:17;;;;;;;19.40;15.28;;;25.00;91.20;;;;;;1724785;83;21211;-81
2022/02/15 11:16:50;;;;;;;20.90;15.10;;;25.00;91.20;;;;;;1764257;81;21730;-84
2022/02/15 11:19:24;;;;;;;22.30;16.35;;;25.00;91.20;;;;;;1730925;83;21245;-82
2022/02/15 11:21:56;;;;;;;19.87;15.50;;;25.00;91.20;;;;;;1763973;81;21678;-83
2022/02/15 11:24:26;;;;;;;20.35;15.30;;;25.00;91.20;;;;;;1765162;80;21257;-81
2022/02/15 11:26:58;;;;;;;23.38;17.02;;;25.00;91.30;;;;;;1725142;83;21168;-82
2022/02/15 11:29:29;;;;;;;25.08;16.82;;;25.00;91.50;;;;;;1762883;81;21657;-85
2022/02/15 11:32:01;;;;;;;21.02;16.00;;;25.00;91.40;;;;;;1744445;81;21650;-83
2022/02/15 11:34:34;;;;;;;20.37;15.32;;;25.00;91.30;;;;;;1762577;81;21605;-84
2022/02/15 11:37:05;;;;;;;21.90;15.75;;;25.00;91.30;;;;;;1721483;83;21170;-83
2022/02/15 11:39:38;;;;;;;20.25;15.20;;;25.00;91.30;;;;;;1757708;80;21118;-83
2022/02/15 11:42:11;;;;;;;18.27;15.20;;;25.00;91.40;;;;;;1757177;81;21697;-84
2022/02/15 11:44:45;;;;;;;22.32;15.03;;;25.00;91.40;;;;;;1712375;82;21163;-83
2022/02/15 11:47:20;;;;;;;20.43;14.83;;;25.00;91.40;;;;;;1734161;82;21175;-83
2022/02/15 11:49:53;;;;;;;19.98;15.10;;;25.00;91.40;;;;;;1712067;83;21290;-82
2022/02/15 11:52:25;;;;;;;19.67;14.20;;;25.00;91.40;;;;;;1743856;81;21685;-83
2022/02/15 11:54:59;;;;;;;19.55;14.55;;;25.00;91.30;;;;;;1743738;82;21080;-83
2022/02/15 11:57:31;;;;;;;16.95;13.58;;;25.00;91.30;;;;;;1716175;83;21179;-83
2022/02/15 12:00:07;;;;;;;20.70;14.23;;;25.00;91.60;;;;;;1751775;82;21159;-83
2022/02/15 12:02:45;;;;;;;19.30;13.78;;;25.00;91.20;;;;;;1709096;83;21715;-84
2022/02/15 12:05:21;;;;;;;19.02;13.83;;;25.00;91.20;;;;;;1730694;82;21143;-82
2022/02/15 12:07:54;;;;;;;20.62;14.13;;;25.00;91.20;;;;;;1749594;81;21389;-83
2022/02/15 12:10:27;;;;;;;19.12;14.47;;;25.00;91.20;;;;;;1749589;82;21253;-79
2022/02/15 12:12:57;;;;;;;20.37;14.78;;;25.00;91.30;;;;;;1718320;82;21171;-82
2022/02/15 12:15:31;;;;;;;21.15;14.73;;;25.00;91.30;;;;;;1737449;82;21212;-82
2022/02/15 12:18:00;;;;;;;18.35;13.80;;;25.00;91.30;;;;;;1740040;82;21183;-82
2022/02/15 12:20:31;;;;;;;16.10;13.88;;;25.00;91.60;;;;;;1716664;83;21609;-83
2022/02/15 12:23:03;;;;;;;22.22;15.20;;;25.00;91.10;;;;;;1747598;82;21638;-83
2022/02/15 12:25:36;;;;;;;21.05;16.10;;;25.00;91.10;;;;;;1704576;83;21112;-82
2022/02/15 12:28:09;;;;;;;21.12;15.58;;;25.00;91.10;;;;;;1739106;81;21265;-82
2022/02/15 12:30:42;;;;;;;19.82;16.07;;;25.00;91.00;;;;;;1715431;82;21230;-82
2022/02/15 12:33:13;;;;;;;17.15;14.28;;;25.00;91.00;;;;;;1749328;81;21606;-82
2022/02/15 12:35:45;;;;;;;18.17;13.60;;;25.00;91.10;;;;;;1717349;82;21180;-83
2022/02/15 12:38:16;;;;;;;18.02;13.93;;;25.00;91.10;;;;;;1752448;81;21285;-82
2022/02/15 12:40:47;;;;;;;22.07;14.65;;;25.00;91.00;;;;;;1717869;83;21160;-81
2022/02/15 12:43:19;;;;;;;19.10;15.10;;;25.00;90.90;;;;;;1746817;82;21164;-81
2022/02/15 12:45:52;;;;;;;24.12;15.78;;;25.00;90.90;;;;;;1746562;81;21648;-83
2022/02/15 12:48:23;;;;;;;22.77;15.00;;;25.00;90.80;;;;;;1721787;82;21258;-82
2022/02/15 12:50:54;;;;;;;18.42;14.63;;;25.10;90.80;;;;;;1754931;81;21155;-81
2022/02/15 12:53:26;;;;;;;18.12;14.53;;;25.10;90.80;;;;;;1717152;83;21618;-81
2022/02/15 12:55:57;;;;;;;20.75;15.08;;;25.10;90.80;;;;;;1752474;82;21687;-81
2022/02/15 12:58:30;;;;;;;19.85;14.43;;;25.00;90.80;;;;;;1751361;82;21236;-86
2022/02/15 13:01:02;;;;;;;23.90;16.75;;;25.00;90.80;;;;;;1752673;82;21184;-83
2022/02/15 13:03:35;;;;;;;104.50;76.47;;;25.00;90.90;;;;;;1719241;83;21625;-83